createdAt,value
2023-04-28T00:01:37.913Z,10.98
2023-04-28T00:04:04.714Z,10.99
2023-04-28T00:06:31.477Z,11.11
2023-04-28T00:08:57.955Z,11.08
2023-04-28T00:11:24.447Z,11.01
2023-04-28T00:13:51.666Z,11.11
2023-04-28T00:16:18.191Z,11.09
2023-04-28T00:18:44.888Z,10.93
2023-04-28T00:21:11.366Z,11.07
2023-04-28T00:23:37.800Z,11.17
2023-04-28T00:26:04.368Z,11.25
2023-04-28T00:28:34.579Z,11.30
2023-04-28T00:31:02.001Z,11.31
2023-04-28T00:33:37.324Z,11.31
2023-04-28T00:36:07.670Z,11.06
2023-04-28T00:38:34.481Z,11.12
2023-04-28T00:41:10.450Z,11.09
2023-04-28T00:43:56.881Z,10.94
2023-04-28T00:46:34.255Z,10.83
2023-04-28T00:49:01.288Z,10.98
2023-04-28T00:51:29.016Z,10.91
2023-04-28T00:53:56.831Z,10.74
2023-04-28T00:56:23.308Z,10.70
2023-04-28T00:58:49.804Z,10.70
2023-04-28T01:01:16.838Z,10.70
2023-04-28T01:03:44.155Z,10.53
2023-04-28T01:06:12.229Z,10.50
2023-04-28T01:08:39.402Z,10.62
2023-04-28T01:11:07.097Z,10.67
2023-04-28T01:13:33.689Z,10.48
2023-04-28T01:16:05.941Z,10.57
2023-04-28T01:18:32.576Z,10.63
2023-04-28T01:21:10.031Z,10.66
2023-04-28T01:23:41.430Z,10.50
2023-04-28T01:26:07.926Z,10.37
2023-04-28T01:28:34.442Z,10.36
2023-04-28T01:31:00.966Z,10.41
2023-04-28T01:33:36.837Z,10.46
2023-04-28T01:36:03.342Z,10.20
2023-04-28T01:38:29.794Z,10.17
2023-04-28T01:40:56.421Z,10.42
2023-04-28T01:43:22.902Z,10.30
2023-04-28T01:45:49.388Z,10.27
2023-04-28T01:48:15.933Z,10.23
2023-04-28T01:50:42.457Z,10.07
2023-04-28T01:53:46.393Z,9.97
2023-04-28T01:56:12.896Z,10.17
2023-04-28T01:58:39.425Z,10.30
2023-04-28T02:01:06.453Z,10.24
2023-04-28T02:03:34.393Z,10.05
2023-04-28T02:06:01.063Z,10.04
2023-04-28T02:08:27.506Z,10.12
2023-04-28T02:10:54.075Z,10.13
2023-04-28T02:13:20.508Z,10.23
2023-04-28T02:15:46.964Z,10.22
2023-04-28T02:18:13.438Z,10.10
2023-04-28T02:20:41.593Z,9.88
2023-04-28T02:23:08.962Z,10.00
2023-04-28T02:25:35.453Z,9.88
2023-04-28T02:28:02.244Z,9.86
2023-04-28T02:30:28.720Z,9.77
2023-04-28T02:32:55.212Z,9.79
2023-04-28T02:35:21.697Z,9.68
2023-04-28T02:37:48.158Z,9.62
2023-04-28T02:40:14.806Z,9.77
2023-04-28T02:42:41.306Z,9.63
2023-04-28T02:45:08.302Z,9.58
2023-04-28T02:47:34.904Z,9.63
2023-04-28T02:50:01.415Z,9.77
2023-04-28T02:52:28.072Z,9.90
2023-04-28T02:54:57.821Z,9.79
2023-04-28T02:57:24.463Z,9.79
2023-04-28T02:59:51.044Z,9.81
2023-04-28T03:02:17.739Z,9.74
2023-04-28T03:04:44.375Z,9.87
2023-04-28T03:07:10.990Z,9.85
2023-04-28T03:09:37.468Z,9.90
2023-04-28T03:12:06.727Z,9.94
2023-04-28T03:14:35.430Z,9.89
2023-04-28T03:17:01.932Z,9.97
2023-04-28T03:19:29.583Z,9.90
2023-04-28T03:21:56.059Z,9.92
2023-04-28T03:24:22.527Z,9.96
2023-04-28T03:26:49.035Z,9.92
2023-04-28T03:29:15.981Z,9.99
2023-04-28T03:31:42.648Z,10.02
2023-04-28T03:34:09.190Z,10.04
2023-04-28T03:36:35.771Z,10.06
2023-04-28T03:39:02.652Z,9.95
2023-04-28T03:41:29.093Z,9.88
2023-04-28T03:43:56.680Z,9.82
2023-04-28T03:46:23.868Z,9.69
2023-04-28T03:48:50.559Z,9.83
2023-04-28T03:51:17.086Z,9.85
2023-04-28T03:53:43.656Z,9.93
2023-04-28T03:56:10.252Z,9.93
2023-04-28T03:58:36.701Z,10.12
2023-04-28T04:01:03.312Z,10.02
2023-04-28T04:03:29.979Z,9.95
2023-04-28T04:05:57.106Z,9.95
2023-04-28T04:08:23.720Z,9.69
2023-04-28T04:10:51.710Z,9.69
2023-04-28T04:13:18.152Z,9.69
2023-04-28T04:15:44.689Z,9.76
2023-04-28T04:18:11.331Z,9.87
2023-04-28T04:20:37.851Z,9.87
2023-04-28T04:23:04.327Z,9.79
2023-04-28T04:25:32.441Z,9.84
2023-04-28T04:27:59.848Z,9.78
2023-04-28T04:30:26.316Z,9.64
2023-04-28T04:32:52.772Z,9.66
2023-04-28T04:35:19.284Z,9.57
2023-04-28T04:37:45.861Z,9.51
2023-04-28T04:40:12.716Z,9.42
2023-04-28T04:42:39.190Z,9.51
2023-04-28T04:45:06.740Z,9.60
2023-04-28T04:47:33.208Z,9.49
2023-04-28T04:49:59.830Z,9.48
2023-04-28T04:52:26.483Z,9.49
2023-04-28T04:54:53.065Z,9.43
2023-04-28T04:57:19.608Z,9.57
2023-04-28T04:59:46.104Z,9.64
2023-04-28T05:02:12.695Z,9.64
2023-04-28T05:04:39.484Z,9.41
2023-04-28T05:07:06.644Z,9.35
2023-04-28T05:09:33.920Z,9.41
2023-04-28T05:12:00.627Z,9.43
2023-04-28T05:14:27.110Z,9.57
2023-04-28T05:16:53.804Z,9.74
2023-04-28T05:19:20.570Z,9.83
2023-04-28T05:21:47.957Z,9.85
2023-04-28T05:24:15.414Z,9.85
2023-04-28T05:26:42.263Z,9.86
2023-04-28T05:29:08.832Z,9.82
2023-04-28T05:31:35.491Z,9.81
2023-04-28T05:34:02.009Z,9.73
2023-04-28T05:36:28.554Z,9.67
2023-04-28T05:38:55.118Z,9.71
2023-04-28T05:41:21.591Z,9.75
2023-04-28T05:43:50.917Z,9.89
2023-04-28T05:46:29.152Z,9.89
2023-04-28T05:48:58.134Z,9.85
2023-04-28T05:51:24.800Z,9.96
2023-04-28T05:53:51.382Z,10.06
2023-04-28T05:56:18.172Z,10.08
2023-04-28T05:58:45.015Z,9.86
2023-04-28T06:01:11.884Z,9.79
2023-04-28T06:03:38.749Z,9.75
2023-04-28T06:06:09.789Z,9.82
2023-04-28T06:08:37.206Z,9.91
2023-04-28T06:11:04.122Z,10.03
2023-04-28T06:13:30.834Z,10.22
2023-04-28T06:15:57.319Z,10.13
2023-04-28T06:18:24.386Z,10.11
2023-04-28T06:20:50.955Z,10.08
2023-04-28T06:23:17.464Z,9.99
2023-04-28T06:25:44.247Z,10.11
2023-04-28T06:28:12.289Z,10.19
2023-04-28T06:30:38.785Z,10.25
2023-04-28T06:33:05.413Z,10.27
2023-04-28T06:35:32.928Z,10.33
2023-04-28T06:37:59.495Z,10.43
2023-04-28T06:40:25.994Z,10.48
2023-04-28T06:42:52.496Z,10.47
2023-04-28T06:45:18.961Z,10.45
2023-04-28T06:47:45.748Z,10.51
2023-04-28T06:50:12.650Z,10.62
2023-04-28T06:52:39.963Z,10.49
2023-04-28T06:55:10.203Z,10.39
2023-04-28T06:57:38.034Z,10.43
2023-04-28T07:00:05.597Z,10.35
2023-04-28T07:02:32.206Z,10.42
2023-04-28T07:04:58.856Z,10.36
2023-04-28T07:07:26.363Z,10.32
2023-04-28T07:09:53.519Z,10.46
2023-04-28T07:12:21.350Z,10.56
2023-04-28T07:14:48.075Z,10.68
2023-04-28T07:17:14.613Z,10.83
2023-04-28T07:19:41.167Z,10.79
2023-04-28T07:22:07.718Z,10.78
2023-04-28T07:24:34.760Z,10.84
2023-04-28T07:27:01.848Z,10.87
2023-04-28T07:29:33.704Z,11.09
2023-04-28T07:32:01.548Z,10.97
2023-04-28T07:34:28.280Z,10.96
2023-04-28T07:36:55.074Z,10.92
2023-04-28T07:39:21.552Z,10.83
2023-04-28T07:41:48.119Z,10.69
2023-04-28T07:44:14.950Z,10.49
2023-04-28T07:46:41.680Z,10.53
2023-04-28T07:49:08.304Z,10.58
2023-04-28T07:51:34.778Z,10.73
2023-04-28T07:54:01.299Z,10.94
2023-04-28T07:56:28.104Z,11.19
2023-04-28T07:58:54.572Z,10.98
2023-04-28T08:01:21.494Z,11.05
2023-04-28T08:03:48.327Z,11.37
2023-04-28T08:06:15.088Z,11.46
2023-04-28T08:08:41.987Z,11.69
2023-04-28T08:11:08.743Z,11.72
2023-04-28T08:13:35.233Z,11.73
2023-04-28T08:16:01.855Z,11.76
2023-04-28T08:18:29.178Z,11.79
2023-04-28T08:20:55.829Z,11.72
2023-04-28T08:23:22.401Z,11.79
2023-04-28T08:25:50.226Z,11.78
2023-04-28T08:28:16.836Z,11.77
2023-04-28T08:30:43.317Z,11.91
2023-04-28T08:33:09.958Z,12.14
2023-04-28T08:35:36.672Z,12.13
2023-04-28T08:38:03.363Z,12.15
2023-04-28T08:40:31.419Z,12.20
2023-04-28T08:42:58.372Z,12.16
2023-04-28T08:45:27.893Z,12.24
2023-04-28T08:47:56.832Z,12.41
2023-04-28T08:50:25.843Z,12.54
2023-04-28T08:52:53.440Z,12.43
2023-04-28T08:55:20.818Z,12.53
2023-04-28T08:57:54.880Z,12.64
2023-04-28T09:00:21.485Z,12.76
2023-04-28T09:02:48.277Z,12.74
2023-04-28T09:05:15.312Z,12.80
2023-04-28T09:07:47.020Z,12.49
2023-04-28T09:10:19.109Z,12.57
2023-04-28T09:12:46.637Z,12.88
2023-04-28T09:15:31.171Z,12.99
2023-04-28T09:17:59.044Z,13.03
2023-04-28T09:20:31.365Z,12.93
2023-04-28T09:23:14.608Z,12.91
2023-04-28T09:25:41.077Z,13.09
2023-04-28T09:28:23.489Z,13.05
2023-04-28T09:30:50.083Z,13.13
2023-04-28T09:33:16.710Z,13.08
2023-04-28T09:35:47.768Z,13.32
2023-04-28T09:38:19.686Z,13.50
2023-04-28T09:40:58.394Z,13.71
2023-04-28T09:43:33.779Z,13.96
2023-04-28T09:46:03.996Z,14.11
2023-04-28T09:48:38.591Z,14.14
2023-04-28T09:51:07.950Z,14.25
2023-04-28T09:53:35.809Z,14.53
2023-04-28T09:56:05.402Z,14.74
2023-04-28T09:58:35.101Z,14.74
2023-04-28T10:01:01.902Z,14.97
2023-04-28T10:03:31.044Z,15.20
2023-04-28T10:05:59.692Z,15.12
2023-04-28T10:08:27.823Z,15.20
2023-04-28T10:10:55.567Z,15.08
2023-04-28T10:13:23.946Z,15.07
2023-04-28T10:15:51.805Z,15.11
2023-04-28T10:18:18.801Z,15.14
2023-04-28T10:20:49.988Z,15.06
2023-04-28T10:23:55.504Z,14.93
2023-04-28T10:26:36.326Z,15.08
2023-04-28T10:29:03.810Z,15.17
2023-04-28T10:31:30.567Z,15.23
2023-04-28T10:34:24.494Z,15.32
2023-04-28T10:36:54.802Z,15.54
2023-04-28T10:39:21.435Z,15.52
2023-04-28T10:41:49.024Z,15.69
2023-04-28T10:44:30.703Z,15.50
2023-04-28T10:47:09.221Z,15.69
2023-04-28T10:49:54.703Z,15.79
2023-04-28T10:52:33.436Z,15.84
2023-04-28T10:55:40.028Z,15.81
2023-04-28T10:58:15.931Z,15.93
2023-04-28T11:00:53.747Z,15.99
2023-04-28T11:04:02.630Z,15.94
2023-04-28T11:06:34.571Z,15.96
2023-04-28T11:09:23.350Z,15.96
2023-04-28T11:12:02.138Z,16.00
2023-04-28T11:14:29.917Z,16.29
2023-04-28T11:17:03.064Z,16.55
2023-04-28T11:19:46.160Z,16.69
2023-04-28T11:22:21.921Z,16.73
2023-04-28T11:25:00.410Z,16.65
2023-04-28T11:27:29.850Z,16.59
2023-04-28T11:29:56.389Z,16.59
2023-04-28T11:32:36.512Z,16.86
2023-04-28T11:35:04.537Z,17.16
2023-04-28T11:37:31.189Z,17.40
2023-04-28T11:39:57.697Z,17.26
2023-04-28T11:42:25.858Z,17.14
2023-04-28T11:44:53.934Z,17.23
2023-04-28T11:47:34.360Z,17.09
2023-04-28T11:50:02.015Z,17.05
2023-04-28T11:52:28.970Z,17.18
2023-04-28T11:54:59.925Z,17.12
2023-04-28T11:57:26.957Z,17.10
2023-04-28T11:59:53.681Z,17.26
2023-04-28T12:02:30.760Z,17.17
2023-04-28T12:05:07.407Z,17.09
2023-04-28T12:07:43.665Z,17.10
2023-04-28T12:10:13.456Z,17.14
2023-04-28T12:12:49.948Z,17.01
2023-04-28T12:15:19.488Z,16.98
2023-04-28T12:17:47.232Z,16.86
2023-04-28T12:20:36.516Z,16.66
2023-04-28T12:23:03.388Z,16.71
2023-04-28T12:25:30.086Z,16.69
2023-04-28T12:28:08.169Z,16.71
2023-04-28T12:30:42.427Z,16.76
2023-04-28T12:33:27.368Z,16.42
2023-04-28T12:35:56.433Z,16.57
2023-04-28T12:38:24.525Z,16.67
2023-04-28T12:40:51.105Z,16.72
2023-04-28T12:43:17.719Z,16.70
2023-04-28T12:45:44.227Z,16.80
2023-04-28T12:48:11.048Z,17.07
2023-04-28T12:50:37.859Z,17.31
2023-04-28T12:53:04.859Z,17.65
2023-04-28T12:55:31.478Z,17.90
2023-04-28T12:57:58.136Z,18.04
2023-04-28T13:00:25.143Z,18.15
2023-04-28T13:02:53.174Z,18.41
2023-04-28T13:05:19.932Z,18.28
2023-04-28T13:07:47.402Z,18.11
2023-04-28T13:10:13.947Z,18.29
2023-04-28T13:12:41.261Z,18.43
2023-04-28T13:15:09.046Z,18.44
2023-04-28T13:17:35.752Z,18.16
2023-04-28T13:20:03.734Z,18.41
2023-04-28T13:22:30.283Z,18.44
2023-04-28T13:24:56.776Z,18.51
2023-04-28T13:27:23.563Z,18.66
2023-04-28T13:29:50.140Z,18.93
2023-04-28T13:32:16.757Z,19.11
2023-04-28T13:34:43.915Z,19.35
2023-04-28T13:37:10.694Z,19.67
2023-04-28T13:39:37.196Z,19.69
2023-04-28T13:42:05.426Z,19.92
2023-04-28T13:44:31.950Z,20.05
2023-04-28T13:46:58.597Z,20.16
2023-04-28T13:49:25.236Z,20.09
2023-04-28T13:51:51.670Z,19.97
2023-04-28T13:54:18.321Z,20.19
2023-04-28T13:56:44.992Z,20.55
2023-04-28T13:59:11.441Z,20.90
2023-04-28T14:01:38.000Z,20.70
2023-04-28T14:04:04.680Z,20.59
2023-04-28T14:06:32.969Z,20.74
2023-04-28T14:09:01.135Z,20.86
2023-04-28T14:11:27.708Z,20.86
2023-04-28T14:13:54.334Z,20.79
2023-04-28T14:16:21.036Z,20.64
2023-04-28T14:18:47.552Z,20.64
2023-04-28T14:21:14.056Z,20.73
2023-04-28T14:23:40.600Z,20.77
2023-04-28T14:26:07.139Z,20.82
2023-04-28T14:28:33.680Z,20.92
2023-04-28T14:31:06.139Z,21.13
2023-04-28T14:33:33.777Z,21.38
2023-04-28T14:36:02.289Z,21.41
2023-04-28T14:38:30.626Z,21.05
2023-04-28T14:40:57.604Z,21.13
2023-04-28T14:43:24.663Z,21.34
2023-04-28T14:45:51.806Z,21.57
2023-04-28T14:48:18.601Z,22.03
2023-04-28T14:50:46.120Z,22.08
2023-04-28T14:53:12.697Z,22.02
2023-04-28T14:55:39.512Z,21.86
2023-04-28T14:58:06.233Z,21.68
2023-04-28T15:00:32.745Z,21.35
2023-04-28T15:02:59.515Z,21.03
2023-04-28T15:05:26.213Z,20.77
2023-04-28T15:07:52.758Z,20.47
2023-04-28T15:10:19.295Z,20.35
2023-04-28T15:12:47.130Z,20.38
2023-04-28T15:15:13.802Z,20.22
2023-04-28T15:17:40.604Z,20.00
2023-04-28T15:20:08.093Z,19.92
2023-04-28T15:22:36.335Z,19.93
2023-04-28T15:25:02.917Z,19.95
2023-04-28T15:27:29.444Z,19.95
2023-04-28T15:29:55.891Z,19.86
2023-04-28T15:32:23.495Z,19.85
2023-04-28T15:34:50.539Z,19.79
2023-04-28T15:37:43.022Z,19.70
2023-04-28T15:40:16.676Z,19.79
2023-04-28T15:42:52.035Z,19.89
2023-04-28T15:45:22.453Z,19.88
2023-04-28T15:47:50.808Z,19.93
2023-04-28T15:50:19.921Z,19.93
2023-04-28T15:52:49.618Z,20.03
2023-04-28T15:55:18.916Z,20.08
2023-04-28T15:57:47.478Z,20.07
2023-04-28T16:00:15.872Z,19.92
2023-04-28T16:02:46.485Z,19.80
2023-04-28T16:05:13.829Z,19.50
2023-04-28T16:07:41.173Z,19.41
2023-04-28T16:10:13.015Z,19.52
2023-04-28T16:12:40.633Z,19.83
2023-04-28T16:15:10.183Z,20.20
2023-04-28T16:17:38.407Z,20.07
2023-04-28T16:20:07.583Z,20.07
2023-04-28T16:22:39.671Z,20.06
2023-04-28T16:25:07.177Z,20.09
2023-04-28T16:27:35.844Z,20.03
2023-04-28T16:30:03.246Z,19.99
2023-04-28T16:32:30.529Z,20.08
2023-04-28T16:34:58.316Z,19.89
2023-04-28T16:37:25.496Z,19.89
2023-04-28T16:39:53.144Z,19.70
2023-04-28T16:42:22.348Z,19.63
2023-04-28T16:44:51.809Z,19.48
2023-04-28T16:47:19.413Z,19.56
2023-04-28T16:49:46.063Z,19.75
2023-04-28T16:52:12.707Z,19.95
2023-04-28T16:54:39.221Z,19.99
2023-04-28T16:57:06.587Z,20.33
2023-04-28T16:59:33.963Z,19.69
2023-04-28T17:02:03.695Z,19.62
2023-04-28T17:04:31.251Z,19.33
2023-04-28T17:06:58.711Z,18.83
2023-04-28T17:09:28.390Z,18.85
2023-04-28T17:11:54.947Z,18.92
2023-04-28T17:14:21.560Z,18.68
2023-04-28T17:16:48.079Z,18.39
2023-04-28T17:19:14.678Z,18.35
2023-04-28T17:21:41.285Z,18.95
2023-04-28T17:24:08.583Z,18.84
2023-04-28T17:26:35.424Z,18.73
2023-04-28T17:29:02.296Z,18.87
2023-04-28T17:31:29.606Z,19.31
2023-04-28T17:33:59.376Z,19.26
2023-04-28T17:36:27.084Z,19.57
2023-04-28T17:38:54.143Z,19.31
2023-04-28T17:41:21.647Z,19.11
2023-04-28T17:43:48.924Z,18.72
2023-04-28T17:46:15.925Z,18.36
2023-04-28T17:48:43.043Z,18.27
2023-04-28T17:51:09.767Z,18.42
2023-04-28T17:53:37.310Z,17.88
2023-04-28T17:56:03.997Z,17.48
2023-04-28T17:58:32.485Z,17.15
2023-04-28T18:01:04.101Z,16.98
2023-04-28T18:03:32.208Z,17.01
2023-04-28T18:05:59.285Z,16.90
2023-04-28T18:08:25.824Z,17.06
2023-04-28T18:10:52.516Z,16.79
2023-04-28T18:13:19.046Z,16.64
2023-04-28T18:15:46.200Z,16.64
2023-04-28T18:18:13.301Z,16.57
2023-04-28T18:20:41.516Z,16.53
2023-04-28T18:23:08.839Z,16.42
2023-04-28T18:25:38.086Z,16.16
2023-04-28T18:28:05.851Z,16.10
2023-04-28T18:30:38.428Z,16.17
2023-04-28T18:33:07.746Z,16.20
2023-04-28T18:35:35.416Z,16.00
2023-04-28T18:38:01.976Z,15.94
2023-04-28T18:40:37.732Z,15.91
2023-04-28T18:43:06.696Z,16.03
2023-04-28T18:45:36.007Z,15.88
2023-04-28T18:48:03.778Z,15.78
2023-04-28T18:50:32.259Z,15.92
2023-04-28T18:53:00.929Z,15.83
2023-04-28T18:55:27.573Z,15.73
2023-04-28T18:57:54.158Z,15.71
2023-04-28T19:00:21.468Z,15.77
2023-04-28T19:02:48.119Z,15.81
2023-04-28T19:05:14.769Z,15.78
2023-04-28T19:07:41.987Z,15.89
2023-04-28T19:10:09.312Z,15.89
2023-04-28T19:12:36.140Z,15.86
2023-04-28T19:15:02.783Z,15.99
2023-04-28T19:17:30.249Z,15.76
2023-04-28T19:19:57.681Z,15.75
2023-04-28T19:22:36.356Z,15.62
2023-04-28T19:25:05.251Z,15.72
2023-04-28T19:27:34.569Z,15.80
2023-04-28T19:30:02.980Z,15.86
2023-04-28T19:32:30.096Z,15.74
2023-04-28T19:34:56.864Z,15.76
2023-04-28T19:37:24.466Z,15.71
2023-04-28T19:39:51.763Z,15.48
2023-04-28T19:42:19.156Z,15.47
2023-04-28T19:44:47.531Z,15.53
2023-04-28T19:47:34.012Z,15.58
2023-04-28T19:50:01.372Z,15.58
2023-04-28T19:52:28.126Z,15.63
2023-04-28T19:54:54.836Z,15.59
2023-04-28T19:57:21.851Z,15.51
2023-04-28T19:59:49.583Z,15.41
2023-04-28T20:02:17.213Z,15.41
2023-04-28T20:04:44.282Z,15.34
2023-04-28T20:07:11.386Z,15.32
2023-04-28T20:09:38.869Z,15.37
2023-04-28T20:12:08.545Z,15.29
2023-04-28T20:14:36.970Z,15.28
2023-04-28T20:17:04.640Z,15.20
2023-04-28T20:19:31.617Z,15.07
2023-04-28T20:21:58.144Z,15.12
2023-04-28T20:24:24.811Z,15.11
2023-04-28T20:26:54.377Z,15.07
2023-04-28T20:29:21.383Z,15.12
2023-04-28T20:31:48.211Z,15.16
2023-04-28T20:34:14.993Z,15.16
2023-04-28T20:36:42.869Z,15.19
2023-04-28T20:39:10.898Z,15.13
2023-04-28T20:41:38.050Z,15.03
2023-04-28T20:44:04.584Z,15.02
2023-04-28T20:46:32.991Z,14.98
2023-04-28T20:49:00.188Z,14.89
2023-04-28T20:51:28.862Z,14.95
2023-04-28T20:53:57.291Z,15.04
2023-04-28T20:56:23.814Z,15.04
2023-04-28T20:58:50.396Z,14.88
2023-04-28T21:01:16.957Z,14.72
2023-04-28T21:03:43.695Z,14.67
2023-04-28T21:06:10.446Z,14.56
2023-04-28T21:08:37.190Z,14.46
2023-04-28T21:11:03.701Z,14.45
2023-04-28T21:16:20.949Z,14.06
2023-04-28T21:18:48.841Z,14.39
2023-04-28T21:21:15.343Z,14.30
2023-04-28T21:23:42.634Z,14.34
2023-04-28T21:26:10.107Z,14.38
2023-04-28T21:28:37.374Z,14.37
2023-04-28T21:31:04.774Z,14.35
2023-04-28T21:33:32.376Z,14.36
2023-04-28T21:36:05.417Z,14.35
2023-04-28T21:38:31.974Z,14.35
2023-04-28T21:40:58.447Z,14.39
2023-04-28T21:43:24.954Z,14.35
2023-04-28T21:45:52.130Z,14.37
2023-04-28T21:48:18.648Z,14.41
2023-04-28T21:50:45.292Z,14.39
2023-04-28T21:53:11.938Z,14.36
2023-04-28T21:55:38.427Z,14.31
2023-04-28T21:58:04.958Z,14.39
2023-04-28T22:00:32.725Z,14.29
2023-04-28T22:02:59.677Z,14.08
2023-04-28T22:05:26.282Z,14.18
2023-04-28T22:07:53.540Z,14.08
2023-04-28T22:10:20.154Z,14.09
2023-04-28T22:12:46.704Z,14.12
2023-04-28T22:15:13.405Z,14.08
2023-04-28T22:17:40.485Z,14.10
2023-04-28T22:20:08.327Z,14.05
2023-04-28T22:22:35.050Z,14.07
2023-04-28T22:25:01.897Z,14.12
2023-04-28T22:27:30.297Z,14.11
2023-04-28T22:29:58.580Z,14.07
2023-04-28T22:32:26.538Z,14.04
2023-04-28T22:34:53.294Z,14.06
2023-04-28T22:37:19.863Z,14.12
2023-04-28T22:39:46.836Z,14.10
2023-04-28T22:42:13.466Z,14.15
2023-04-28T22:44:39.991Z,14.14
2023-04-28T22:47:06.578Z,14.09
2023-04-28T22:49:33.048Z,14.21
2023-04-28T22:51:59.912Z,14.17
2023-04-28T22:54:26.653Z,14.14
2023-04-28T22:56:53.615Z,14.20
2023-04-28T22:59:20.141Z,14.27
2023-04-28T23:01:46.720Z,13.97
2023-04-28T23:04:13.404Z,13.93
2023-04-28T23:06:39.926Z,13.94
2023-04-28T23:09:06.992Z,13.91
2023-04-28T23:11:33.448Z,13.91
2023-04-28T23:13:59.921Z,13.95
2023-04-28T23:16:26.558Z,13.94
2023-04-28T23:18:53.147Z,13.95
2023-04-28T23:21:19.631Z,14.02
2023-04-28T23:23:46.228Z,14.00
2023-04-28T23:26:12.732Z,14.10
2023-04-28T23:28:39.179Z,14.11
2023-04-28T23:31:05.716Z,14.13
2023-04-28T23:33:32.174Z,14.14
2023-04-28T23:35:58.638Z,14.11
2023-04-28T23:38:26.320Z,14.09
2023-04-28T23:40:52.760Z,14.06
2023-04-28T23:43:19.249Z,13.79
2023-04-28T23:45:45.824Z,13.72
2023-04-28T23:48:12.536Z,13.69
2023-04-28T23:50:38.973Z,13.65
2023-04-28T23:53:05.527Z,13.66
2023-04-28T23:55:31.971Z,13.59
2023-04-28T23:57:58.497Z,13.55
